createdAt,value
2023-01-03T00:02:42.600Z,7.57
2023-01-03T00:07:49.916Z,8.23
2023-01-03T00:12:58.795Z,7.50
2023-01-03T00:18:06.521Z,6.20
2023-01-03T00:23:13.717Z,6.73
2023-01-03T00:28:21.011Z,8.77
2023-01-03T00:33:27.905Z,6.80
2023-01-03T00:38:36.236Z,6.43
2023-01-03T00:43:47.256Z,7.17
2023-01-03T00:48:54.926Z,8.67
2023-01-03T00:54:04.324Z,26.03
2023-01-03T00:59:12.853Z,4.47
2023-01-03T01:04:22.780Z,4.73
2023-01-03T01:09:32.627Z,3.43
2023-01-03T01:14:39.551Z,3.30
2023-01-03T01:19:46.851Z,5.17
2023-01-03T01:24:54.024Z,8.37
2023-01-03T01:30:01.165Z,7.37
2023-01-03T01:35:08.425Z,7.17
2023-01-03T01:40:15.250Z,7.70
2023-01-03T01:45:22.692Z,7.83
2023-01-03T01:50:31.836Z,8.73
2023-01-03T01:55:42.001Z,8.63
2023-01-03T02:00:49.091Z,8.70
2023-01-03T02:05:57.409Z,8.53
2023-01-03T02:11:06.529Z,9.73
2023-01-03T02:16:14.665Z,8.90
2023-01-03T02:21:24.689Z,9.67
2023-01-03T02:26:34.602Z,6.43
2023-01-03T02:31:44.761Z,7.20
2023-01-03T02:36:54.954Z,8.33
2023-01-03T02:42:06.687Z,6.10
2023-01-03T02:47:16.661Z,6.70
2023-01-03T02:52:26.498Z,6.70
2023-01-03T02:57:36.418Z,6.87
2023-01-03T03:02:46.193Z,5.03
2023-01-03T03:07:54.722Z,6.87
2023-01-03T03:13:06.189Z,8.33
2023-01-03T03:18:16.055Z,5.77
2023-01-03T03:23:27.429Z,5.67
2023-01-03T03:28:37.576Z,4.83
2023-01-03T03:33:47.631Z,9.93
2023-01-03T03:38:55.037Z,7.40
2023-01-03T03:44:06.582Z,7.70
2023-01-03T03:49:18.210Z,6.67
2023-01-03T03:54:26.983Z,8.70
2023-01-03T04:04:39.395Z,11.93
2023-01-03T04:09:46.432Z,30.67
2023-01-03T04:14:53.768Z,26.10
2023-01-03T04:20:01.390Z,23.77
2023-01-03T04:25:09.254Z,42.47
2023-01-03T04:30:16.436Z,28.83
2023-01-03T04:35:23.646Z,5.60
2023-01-03T04:40:31.160Z,7.17
2023-01-03T04:45:38.429Z,4.17
2023-01-03T04:50:48.762Z,4.03
2023-01-03T04:55:57.877Z,5.47
2023-01-03T05:01:08.511Z,5.00
2023-01-03T05:06:16.041Z,4.83
2023-01-03T05:11:23.328Z,18.53
2023-01-03T05:16:31.624Z,2.87
2023-01-03T05:21:40.227Z,3.73
2023-01-03T05:26:48.120Z,2.93
2023-01-03T05:31:55.904Z,4.30
2023-01-03T05:37:03.285Z,3.37
2023-01-03T05:42:10.768Z,2.90
2023-01-03T05:47:18.284Z,3.13
2023-01-03T05:52:25.581Z,3.73
2023-01-03T05:57:35.607Z,2.73
2023-01-03T06:02:41.732Z,2.50
2023-01-03T06:07:48.758Z,2.60
2023-01-03T06:12:56.924Z,4.23
2023-01-03T06:18:03.927Z,2.40
2023-01-03T06:23:11.092Z,4.83
2023-01-03T06:28:18.087Z,4.83
2023-01-03T06:33:25.027Z,2.90
2023-01-03T06:38:31.990Z,6.03
2023-01-03T06:43:39.120Z,2.87
2023-01-03T06:48:47.952Z,4.50
2023-01-03T06:53:54.990Z,8.67
2023-01-03T06:59:02.208Z,106.73
2023-01-03T07:04:10.231Z,7.50
2023-01-03T07:09:18.774Z,12.90
2023-01-03T07:14:25.913Z,13.73
2023-01-03T07:19:32.922Z,13.93
2023-01-03T07:24:39.959Z,2.63
2023-01-03T07:29:47.185Z,5.40
2023-01-03T07:34:54.137Z,10.10
2023-01-03T07:40:01.427Z,2.57
2023-01-03T07:45:10.025Z,48.93
2023-01-03T07:50:17.286Z,4.47
2023-01-03T07:55:24.580Z,2.80
2023-01-03T08:00:32.584Z,5.60
2023-01-03T08:05:40.509Z,4.60
2023-01-03T08:10:48.998Z,2.63
2023-01-03T08:15:57.764Z,3.10
2023-01-03T08:21:05.322Z,2.40
2023-01-03T08:26:15.027Z,3.17
2023-01-03T08:31:24.536Z,4.33
2023-01-03T08:36:36.138Z,3.73
2023-01-03T08:41:45.962Z,2.73
2023-01-03T08:46:55.901Z,2.50
2023-01-03T08:52:03.500Z,3.23
2023-01-03T08:57:10.650Z,1.83
2023-01-03T09:02:17.862Z,1.80
2023-01-03T09:07:25.189Z,2.70
2023-01-03T09:12:32.325Z,4.53
2023-01-03T09:17:41.210Z,2.43
2023-01-03T09:22:48.637Z,3.33
2023-01-03T09:27:55.697Z,4.73
2023-01-03T09:33:02.536Z,4.70
2023-01-03T09:38:10.527Z,16.67
2023-01-03T09:43:25.314Z,4.53
2023-01-03T09:48:32.219Z,4.10
2023-01-03T09:53:43.810Z,5.57
2023-01-03T09:58:57.154Z,2.83
2023-01-03T10:04:07.406Z,3.50
2023-01-03T10:09:15.788Z,3.57
2023-01-03T10:14:25.746Z,2.30
2023-01-03T10:19:35.987Z,5.50
2023-01-03T10:24:46.553Z,3.00
2023-01-03T10:29:56.377Z,3.57
2023-01-03T10:35:06.224Z,3.53
2023-01-03T10:40:14.187Z,5.30
2023-01-03T10:45:22.614Z,3.23
2023-01-03T10:50:30.607Z,4.80
2023-01-03T10:55:40.537Z,4.17
2023-01-03T11:00:47.682Z,5.80
2023-01-03T11:05:57.641Z,4.53
2023-01-03T11:11:04.878Z,5.47
2023-01-03T11:16:14.884Z,9.10
2023-01-03T11:21:24.937Z,4.23
2023-01-03T11:26:33.157Z,3.60
2023-01-03T11:31:43.052Z,4.10
2023-01-03T11:36:51.957Z,16.87
2023-01-03T11:42:01.863Z,4.43
2023-01-03T11:47:12.615Z,4.93
2023-01-03T11:52:22.527Z,4.43
2023-01-03T11:57:30.771Z,5.10
2023-01-03T12:02:40.809Z,4.97
2023-01-03T12:07:50.683Z,5.77
2023-01-03T12:13:00.701Z,4.77
2023-01-03T12:18:09.949Z,5.40
2023-01-03T12:23:18.005Z,4.03
2023-01-03T12:28:28.050Z,5.43
2023-01-03T12:33:39.387Z,5.63
2023-01-03T12:38:49.245Z,6.60
2023-01-03T12:43:59.487Z,3.07
2023-01-03T12:49:10.043Z,3.73
2023-01-03T12:54:20.446Z,4.40
2023-01-03T12:59:30.418Z,3.67
2023-01-03T13:04:40.595Z,3.77
2023-01-03T13:09:50.470Z,3.57
2023-01-03T13:15:00.163Z,4.33
2023-01-03T13:20:09.951Z,3.57
2023-01-03T13:25:20.055Z,4.53
2023-01-03T13:30:30.039Z,2.67
2023-01-03T13:35:39.737Z,3.70
2023-01-03T13:41:19.658Z,4.40
2023-01-03T13:46:00.907Z,3.57
2023-01-03T13:51:11.719Z,4.73
2023-01-03T13:56:18.289Z,6.53
2023-01-03T14:01:26.834Z,4.00
2023-01-03T14:06:37.018Z,3.33
2023-01-03T14:11:46.937Z,5.80
2023-01-03T14:16:57.908Z,4.90
2023-01-03T14:22:27.310Z,4.70
2023-01-03T14:27:18.836Z,7.37
2023-01-03T14:32:33.967Z,5.57
2023-01-03T14:37:39.167Z,8.00
2023-01-03T14:42:47.722Z,5.77
2023-01-03T14:47:55.711Z,4.10
2023-01-03T14:53:04.419Z,6.47
2023-01-03T14:58:14.456Z,6.83
2023-01-03T15:03:22.479Z,8.07
2023-01-03T15:08:32.388Z,17.33
2023-01-03T15:13:42.555Z,8.20
2023-01-03T15:18:50.423Z,30.53
2023-01-03T15:23:58.032Z,7.83
2023-01-03T15:29:08.220Z,5.37
2023-01-03T15:34:18.221Z,6.30
2023-01-03T15:39:28.926Z,7.47
2023-01-03T15:44:36.422Z,14.47
2023-01-03T15:49:46.283Z,212.33
2023-01-03T15:54:53.407Z,174.00
2023-01-03T16:00:03.380Z,86.97
2023-01-03T16:05:19.544Z,228.07
2023-01-03T16:10:22.827Z,296.87
2023-01-03T16:15:29.891Z,119.47
2023-01-03T16:20:38.064Z,298.30
2023-01-03T16:25:45.239Z,34.27
2023-01-03T16:30:56.281Z,79.23
2023-01-03T16:36:05.108Z,205.10
2023-01-03T16:41:12.868Z,256.27
2023-01-03T16:46:22.712Z,190.97
2023-01-03T16:51:33.306Z,243.63
2023-01-03T16:56:40.356Z,232.87
2023-01-03T17:01:48.514Z,149.20
2023-01-03T17:06:55.516Z,11.43
2023-01-03T17:12:02.992Z,20.77
2023-01-03T17:17:12.897Z,153.20
2023-01-03T17:22:23.812Z,16.77
2023-01-03T17:27:33.143Z,27.93
2023-01-03T17:32:39.633Z,254.97
2023-01-03T17:38:23.352Z,154.40
2023-01-03T17:42:58.245Z,48.57
2023-01-03T17:48:07.485Z,168.53
2023-01-03T17:53:17.555Z,121.33
2023-01-03T17:58:27.565Z,220.93
2023-01-03T18:03:34.881Z,177.93
2023-01-03T18:08:43.251Z,66.07
2023-01-03T18:13:50.699Z,82.77
2023-01-03T18:18:57.736Z,130.73
2023-01-03T18:24:07.151Z,58.20
2023-01-03T18:29:17.628Z,151.97
2023-01-03T18:34:26.051Z,78.83
2023-01-03T18:39:35.857Z,53.10
2023-01-03T18:44:44.114Z,103.53
2023-01-03T18:49:52.681Z,63.87
2023-01-03T18:55:05.898Z,49.13
2023-01-03T19:00:16.598Z,35.30
2023-01-03T19:05:25.501Z,29.07
2023-01-03T19:10:35.787Z,72.33
2023-01-03T19:15:43.924Z,91.10
2023-01-03T19:20:53.161Z,45.13
2023-01-03T19:26:03.752Z,35.43
2023-01-03T19:31:13.541Z,39.27
2023-01-03T19:36:23.332Z,115.13
2023-01-03T19:41:30.554Z,22.20
2023-01-03T19:46:38.986Z,154.60
2023-01-03T19:51:46.371Z,17.30
2023-01-03T19:56:56.594Z,24.27
2023-01-03T20:07:15.896Z,53.33
2023-01-03T20:12:29.623Z,7.10
2023-01-03T20:17:38.041Z,7.50
2023-01-03T20:23:04.625Z,6.60
2023-01-03T20:27:56.754Z,3.97
2023-01-03T20:33:04.626Z,5.00
2023-01-03T20:38:13.875Z,5.17
2023-01-03T20:43:21.424Z,8.90
2023-01-03T20:48:31.323Z,20.43
2023-01-03T20:53:42.725Z,6.80
2023-01-03T20:58:46.784Z,4.27
2023-01-03T21:03:54.211Z,3.63
2023-01-03T21:09:02.139Z,3.83
2023-01-03T21:14:12.187Z,11.10
2023-01-03T21:19:21.847Z,33.33
2023-01-03T21:24:29.643Z,31.93
2023-01-03T21:29:36.775Z,29.97
2023-01-03T21:34:43.709Z,28.40
2023-01-03T21:39:50.832Z,4.63
2023-01-03T21:44:58.613Z,2.73
2023-01-03T21:50:06.361Z,2.73
2023-01-03T21:55:13.439Z,13.90
2023-01-03T22:00:20.781Z,7.33
2023-01-03T22:05:29.002Z,1.60
2023-01-03T22:10:37.369Z,2.17
2023-01-03T22:15:44.405Z,1.60
2023-01-03T22:20:51.511Z,4.43
2023-01-03T22:26:01.801Z,3.63
2023-01-03T22:31:11.690Z,4.13
2023-01-03T22:36:19.588Z,3.10
2023-01-03T22:41:28.158Z,2.63
2023-01-03T22:46:35.327Z,2.87
2023-01-03T22:51:42.418Z,2.33
2023-01-03T22:56:49.823Z,15.13
2023-01-03T23:01:57.957Z,3.37
2023-01-03T23:07:05.248Z,4.73
2023-01-03T23:12:14.563Z,8.87
2023-01-03T23:17:23.332Z,22.40
2023-01-03T23:22:30.451Z,8.33
2023-01-03T23:27:38.868Z,11.00
2023-01-03T23:32:46.042Z,7.67
2023-01-03T23:37:52.994Z,8.67
2023-01-03T23:42:59.975Z,4.93
2023-01-03T23:48:07.146Z,42.50
2023-01-03T23:53:13.974Z,5.17
2023-01-03T23:58:20.852Z,6.67
